createdAt,value
2023-05-12T00:00:08.227Z,100.00
2023-05-12T00:02:34.702Z,100.00
2023-05-12T00:05:01.454Z,100.00
2023-05-12T00:07:28.054Z,100.00
2023-05-12T00:09:54.354Z,100.00
2023-05-12T00:12:20.679Z,100.00
2023-05-12T00:14:47.001Z,100.00
2023-05-12T00:17:13.302Z,100.00
2023-05-12T00:19:39.625Z,100.00
2023-05-12T00:22:05.932Z,100.00
2023-05-12T00:24:32.265Z,100.00
2023-05-12T00:26:58.612Z,100.00
2023-05-12T00:29:24.979Z,100.00
2023-05-12T00:31:51.335Z,100.00
2023-05-12T00:34:17.697Z,100.00
2023-05-12T00:36:44.058Z,100.00
2023-05-12T00:39:10.369Z,100.00
2023-05-12T00:41:36.705Z,100.00
2023-05-12T00:44:03.254Z,100.00
2023-05-12T00:46:29.668Z,100.00
2023-05-12T00:48:56.092Z,100.00
2023-05-12T00:51:23.292Z,100.00
2023-05-12T00:53:50.542Z,100.00
2023-05-12T00:56:19.082Z,100.00
2023-05-12T00:58:45.963Z,100.00
2023-05-12T01:01:12.433Z,100.00
2023-05-12T01:03:38.948Z,100.00
2023-05-12T01:06:08.057Z,100.00
2023-05-12T01:08:34.952Z,100.00
2023-05-12T01:11:01.281Z,100.00
2023-05-12T01:13:28.122Z,100.00
2023-05-12T01:15:56.371Z,100.00
2023-05-12T01:18:24.088Z,100.00
2023-05-12T01:20:51.198Z,100.00
2023-05-12T01:23:20.079Z,100.00
2023-05-12T01:25:49.156Z,100.00
2023-05-12T01:28:16.497Z,100.00
2023-05-12T01:30:43.709Z,100.00
2023-05-12T01:33:10.248Z,100.00
2023-05-12T01:35:36.557Z,100.00
2023-05-12T01:38:02.888Z,100.00
2023-05-12T01:40:29.215Z,100.00
2023-05-12T01:42:55.510Z,100.00
2023-05-12T01:45:21.824Z,100.00
2023-05-12T01:47:48.168Z,100.00
2023-05-12T01:50:14.466Z,100.00
2023-05-12T01:52:40.757Z,100.00
2023-05-12T01:55:07.479Z,100.00
2023-05-12T01:57:33.780Z,100.00
2023-05-12T02:00:00.128Z,100.00
2023-05-12T02:02:26.510Z,100.00
2023-05-12T02:04:52.991Z,100.00
2023-05-12T02:07:19.320Z,100.00
2023-05-12T02:09:45.994Z,100.00
2023-05-12T02:12:12.373Z,100.00
2023-05-12T02:14:38.707Z,100.00
2023-05-12T02:17:05.017Z,100.00
2023-05-12T02:19:31.384Z,100.00
2023-05-12T02:21:57.690Z,100.00
2023-05-12T02:24:24.005Z,100.00
2023-05-12T02:26:50.293Z,100.00
2023-05-12T02:29:16.597Z,100.00
2023-05-12T02:31:42.955Z,100.00
2023-05-12T02:34:09.277Z,100.00
2023-05-12T02:36:35.585Z,100.00
2023-05-12T02:39:01.886Z,100.00
2023-05-12T02:41:28.294Z,100.00
2023-05-12T02:43:54.597Z,100.00
2023-05-12T02:46:20.944Z,100.00
2023-05-12T02:48:47.287Z,100.00
2023-05-12T02:51:13.784Z,100.00
2023-05-12T02:53:40.099Z,100.00
2023-05-12T02:56:06.760Z,100.00
2023-05-12T02:58:33.069Z,100.00
2023-05-12T03:01:09.387Z,100.00
2023-05-12T03:03:37.809Z,100.00
2023-05-12T03:06:04.989Z,100.00
2023-05-12T03:08:31.583Z,100.00
2023-05-12T03:10:57.956Z,100.00
2023-05-12T03:13:24.325Z,100.00
2023-05-12T03:15:50.628Z,100.00
2023-05-12T03:18:16.934Z,100.00
2023-05-12T03:20:43.345Z,100.00
2023-05-12T03:23:09.653Z,100.00
2023-05-12T03:25:35.981Z,100.00
2023-05-12T03:28:02.537Z,100.00
2023-05-12T03:30:29.031Z,100.00
2023-05-12T03:32:55.384Z,100.00
2023-05-12T03:35:21.712Z,100.00
2023-05-12T03:37:48.014Z,100.00
2023-05-12T03:40:14.399Z,100.00
2023-05-12T03:42:40.706Z,100.00
2023-05-12T03:45:07.678Z,100.00
2023-05-12T03:47:34.029Z,100.00
2023-05-12T03:50:00.457Z,100.00
2023-05-12T03:52:26.763Z,100.00
2023-05-12T03:54:53.163Z,100.00
2023-05-12T03:57:19.469Z,100.00
2023-05-12T03:59:45.776Z,100.00
2023-05-12T04:02:12.134Z,100.00
2023-05-12T04:04:38.517Z,100.00
2023-05-12T04:07:05.162Z,100.00
2023-05-12T04:09:32.645Z,100.00
2023-05-12T04:11:59.074Z,100.00
2023-05-12T04:14:35.290Z,100.00
2023-05-12T04:17:08.334Z,100.00
2023-05-12T04:19:34.646Z,100.00
2023-05-12T04:22:00.981Z,100.00
2023-05-12T04:24:27.293Z,100.00
2023-05-12T04:26:53.593Z,100.00
2023-05-12T04:29:19.882Z,100.00
2023-05-12T04:31:46.220Z,100.00
2023-05-12T04:34:12.653Z,100.00
2023-05-12T04:36:39.035Z,100.00
2023-05-12T04:39:05.357Z,100.00
2023-05-12T04:41:31.657Z,100.00
2023-05-12T04:44:00.850Z,100.00
2023-05-12T04:46:27.361Z,100.00
2023-05-12T04:48:53.732Z,100.00
2023-05-12T04:51:20.053Z,100.00
2023-05-12T04:53:46.363Z,100.00
2023-05-12T04:56:12.673Z,100.00
2023-05-12T04:58:38.991Z,100.00
2023-05-12T05:01:05.337Z,100.00
2023-05-12T05:03:31.823Z,100.00
2023-05-12T05:05:58.259Z,100.00
2023-05-12T05:08:24.569Z,100.00
2023-05-12T05:10:50.945Z,100.00
2023-05-12T05:13:17.290Z,100.00
2023-05-12T05:15:53.648Z,100.00
2023-05-12T05:18:22.307Z,100.00
2023-05-12T05:20:57.292Z,100.00
2023-05-12T05:23:24.690Z,100.00
2023-05-12T05:25:51.058Z,100.00
2023-05-12T05:28:17.352Z,100.00
2023-05-12T05:30:43.709Z,100.00
2023-05-12T05:33:10.104Z,100.00
2023-05-12T05:35:36.534Z,100.00
2023-05-12T05:38:02.882Z,100.00
2023-05-12T05:40:33.812Z,100.00
2023-05-12T05:43:05.152Z,100.00
2023-05-12T05:45:31.539Z,100.00
2023-05-12T05:47:57.976Z,100.00
2023-05-12T05:50:24.316Z,100.00
2023-05-12T05:52:50.715Z,100.00
2023-05-12T05:55:17.249Z,100.00
2023-05-12T05:57:43.704Z,100.00
2023-05-12T06:00:10.549Z,100.00
2023-05-12T06:02:36.976Z,100.00
2023-05-12T06:05:03.419Z,100.00
2023-05-12T06:07:29.726Z,100.00
2023-05-12T06:09:56.101Z,99.10
2023-05-12T06:12:22.392Z,99.59
2023-05-12T06:14:48.706Z,99.22
2023-05-12T06:17:15.114Z,99.79
2023-05-12T06:19:41.429Z,99.38
2023-05-12T06:22:07.713Z,100.00
2023-05-12T06:24:34.029Z,99.74
2023-05-12T06:27:00.357Z,98.87
2023-05-12T06:29:26.691Z,97.30
2023-05-12T06:31:53.029Z,95.74
2023-05-12T06:34:19.423Z,95.06
2023-05-12T06:36:45.775Z,95.80
2023-05-12T06:39:12.146Z,94.87
2023-05-12T06:41:38.473Z,95.26
2023-05-12T06:44:04.935Z,95.69
2023-05-12T06:46:31.269Z,96.64
2023-05-12T06:48:57.832Z,99.04
2023-05-12T06:51:24.186Z,99.44
2023-05-12T06:53:50.520Z,96.34
2023-05-12T06:56:16.833Z,94.07
2023-05-12T06:58:45.992Z,91.77
2023-05-12T07:01:12.325Z,91.03
2023-05-12T07:03:38.650Z,91.50
2023-05-12T07:06:05.135Z,92.23
2023-05-12T07:08:31.475Z,91.69
2023-05-12T07:11:00.266Z,90.11
2023-05-12T07:13:26.952Z,89.74
2023-05-12T07:15:53.357Z,87.22
2023-05-12T07:18:19.877Z,86.54
2023-05-12T07:20:46.219Z,85.18
2023-05-12T07:23:13.164Z,84.29
2023-05-12T07:25:39.591Z,83.77
2023-05-12T07:28:06.012Z,81.11
2023-05-12T07:30:32.358Z,81.21
2023-05-12T07:32:58.827Z,81.34
2023-05-12T07:35:25.166Z,80.17
2023-05-12T07:37:51.461Z,78.69
2023-05-12T07:40:17.874Z,77.79
2023-05-12T07:42:44.188Z,81.75
2023-05-12T07:45:10.836Z,76.76
2023-05-12T07:47:37.147Z,77.19
2023-05-12T07:50:03.577Z,78.78
2023-05-12T07:52:29.917Z,78.62
2023-05-12T07:54:56.860Z,76.67
2023-05-12T07:57:23.801Z,74.88
2023-05-12T07:59:50.136Z,78.44
2023-05-12T08:02:16.503Z,78.41
2023-05-12T08:04:44.538Z,77.38
2023-05-12T08:07:10.984Z,77.33
2023-05-12T08:09:37.276Z,77.42
2023-05-12T08:12:03.806Z,76.21
2023-05-12T08:14:30.119Z,73.67
2023-05-12T08:16:56.483Z,78.05
2023-05-12T08:19:22.851Z,77.28
2023-05-12T08:21:49.182Z,78.70
2023-05-12T08:24:15.492Z,81.09
2023-05-12T08:26:41.793Z,79.11
2023-05-12T08:29:08.098Z,76.68
2023-05-12T08:31:34.549Z,72.23
2023-05-12T08:34:09.637Z,72.68
2023-05-12T08:36:38.341Z,75.35
2023-05-12T08:39:05.104Z,74.86
2023-05-12T08:41:31.350Z,74.06
2023-05-12T08:43:59.229Z,75.02
2023-05-12T08:46:25.816Z,75.18
2023-05-12T08:48:55.115Z,73.20
2023-05-12T08:51:24.121Z,73.27
2023-05-12T08:53:53.269Z,74.30
2023-05-12T08:58:49.847Z,72.07
2023-05-12T09:01:17.642Z,71.88
2023-05-12T09:03:44.297Z,71.95
2023-05-12T09:06:11.750Z,70.91
2023-05-12T09:08:39.480Z,70.67
2023-05-12T09:11:05.813Z,72.94
2023-05-12T09:14:00.828Z,70.41
2023-05-12T09:16:29.910Z,70.70
2023-05-12T09:18:59.044Z,67.86
2023-05-12T09:21:26.320Z,70.65
2023-05-12T09:23:57.868Z,69.49
2023-05-12T09:26:26.126Z,67.72
2023-05-12T09:28:54.533Z,67.61
2023-05-12T09:31:22.864Z,66.26
2023-05-12T09:33:52.682Z,66.06
2023-05-12T09:36:20.564Z,64.45
2023-05-12T09:38:58.053Z,64.74
2023-05-12T09:41:24.387Z,66.24
2023-05-12T09:43:53.068Z,64.18
2023-05-12T09:46:19.401Z,67.17
2023-05-12T09:48:47.926Z,66.56
2023-05-12T09:51:17.323Z,68.94
2023-05-12T09:53:44.004Z,67.06
2023-05-12T09:56:14.291Z,67.29
2023-05-12T09:58:48.014Z,64.86
2023-05-12T10:01:22.882Z,67.13
2023-05-12T10:03:57.429Z,67.05
2023-05-12T10:06:27.707Z,64.51
2023-05-12T10:09:02.343Z,66.32
2023-05-12T10:11:29.472Z,62.99
2023-05-12T10:13:57.459Z,64.04
2023-05-12T10:16:24.562Z,66.28
2023-05-12T10:18:51.541Z,60.04
2023-05-12T10:21:18.871Z,61.75
2023-05-12T10:23:46.310Z,65.61
2023-05-12T10:26:14.055Z,65.29
2023-05-12T10:28:40.836Z,69.04
2023-05-12T10:31:07.792Z,66.91
2023-05-12T10:33:34.204Z,67.24
2023-05-12T10:36:00.785Z,62.96
2023-05-12T10:38:35.061Z,61.69
2023-05-12T10:41:02.981Z,59.55
2023-05-12T10:43:41.230Z,59.16
2023-05-12T10:46:18.561Z,59.11
2023-05-12T10:49:08.351Z,58.02
2023-05-12T10:51:47.048Z,55.81
2023-05-12T10:54:20.577Z,56.91
2023-05-12T10:56:48.031Z,58.80
2023-05-12T10:59:17.824Z,56.11
2023-05-12T11:02:00.300Z,57.99
2023-05-12T11:04:38.326Z,58.35
2023-05-12T11:07:06.165Z,60.70
2023-05-12T11:09:36.337Z,54.90
2023-05-12T11:12:04.474Z,53.37
2023-05-12T11:14:31.340Z,51.46
2023-05-12T11:16:57.641Z,51.12
2023-05-12T11:19:23.932Z,52.13
2023-05-12T11:21:51.261Z,52.57
2023-05-12T11:24:17.634Z,53.45
2023-05-12T11:26:44.047Z,54.11
2023-05-12T11:29:10.348Z,52.56
2023-05-12T11:31:36.701Z,49.92
2023-05-12T11:34:11.937Z,50.35
2023-05-12T11:36:41.730Z,48.89
2023-05-12T11:39:13.819Z,47.88
2023-05-12T11:41:40.224Z,46.47
2023-05-12T11:44:17.100Z,47.08
2023-05-12T11:47:02.853Z,48.12
2023-05-12T11:49:31.192Z,47.66
2023-05-12T11:52:00.901Z,46.00
2023-05-12T11:54:29.271Z,44.98
2023-05-12T11:56:57.183Z,43.84
2023-05-12T11:59:28.562Z,42.33
2023-05-12T12:01:55.302Z,44.72
2023-05-12T12:04:34.920Z,44.76
2023-05-12T12:07:02.063Z,43.79
2023-05-12T12:09:39.712Z,43.28
2023-05-12T12:12:07.815Z,45.12
2023-05-12T12:14:35.841Z,47.07
2023-05-12T12:17:02.754Z,42.84
2023-05-12T12:19:29.167Z,43.63
2023-05-12T12:21:56.720Z,40.83
2023-05-12T12:24:24.026Z,41.78
2023-05-12T12:26:50.619Z,39.98
2023-05-12T12:29:17.676Z,39.87
2023-05-12T12:31:44.401Z,40.26
2023-05-12T12:34:10.806Z,39.31
2023-05-12T12:36:37.244Z,39.50
2023-05-12T12:39:03.684Z,41.23
2023-05-12T12:41:30.030Z,42.11
2023-05-12T12:43:56.317Z,41.31
2023-05-12T12:46:22.764Z,40.30
2023-05-12T12:48:49.118Z,40.50
2023-05-12T12:51:15.529Z,42.18
2023-05-12T12:53:41.823Z,39.76
2023-05-12T12:56:08.153Z,39.64
2023-05-12T12:58:34.876Z,38.82
2023-05-12T13:01:01.857Z,40.09
2023-05-12T13:03:28.284Z,38.35
2023-05-12T13:05:54.788Z,38.73
2023-05-12T13:08:21.098Z,39.56
2023-05-12T13:10:47.442Z,40.92
2023-05-12T13:13:13.755Z,37.26
2023-05-12T13:15:40.326Z,38.34
2023-05-12T13:18:06.738Z,37.14
2023-05-12T13:20:33.173Z,38.15
2023-05-12T13:22:59.522Z,35.29
2023-05-12T13:25:25.835Z,37.01
2023-05-12T13:27:52.157Z,35.20
2023-05-12T13:30:18.470Z,35.60
2023-05-12T13:32:44.979Z,36.38
2023-05-12T13:35:11.302Z,33.90
2023-05-12T13:37:41.463Z,34.64
2023-05-12T13:40:08.337Z,35.91
2023-05-12T13:42:34.711Z,36.53
2023-05-12T13:45:01.121Z,35.42
2023-05-12T13:47:27.464Z,35.08
2023-05-12T13:49:53.895Z,34.85
2023-05-12T13:52:20.219Z,36.12
2023-05-12T13:54:46.574Z,35.82
2023-05-12T13:57:12.978Z,35.25
2023-05-12T13:59:39.434Z,36.62
2023-05-12T14:02:05.817Z,36.48
2023-05-12T14:04:32.257Z,37.95
2023-05-12T14:06:58.584Z,38.23
2023-05-12T14:09:24.911Z,38.92
2023-05-12T14:11:51.245Z,39.02
2023-05-12T14:14:17.586Z,38.77
2023-05-12T14:16:43.893Z,39.47
2023-05-12T14:19:10.348Z,38.13
2023-05-12T14:21:36.681Z,38.81
2023-05-12T14:24:03.118Z,37.68
2023-05-12T14:26:29.420Z,38.50
2023-05-12T14:28:55.896Z,39.04
2023-05-12T14:31:22.417Z,40.76
2023-05-12T14:33:48.754Z,40.02
2023-05-12T14:36:15.109Z,39.74
2023-05-12T14:38:41.416Z,40.53
2023-05-12T14:41:07.726Z,39.65
2023-05-12T14:43:34.020Z,41.04
2023-05-12T14:46:00.400Z,40.23
2023-05-12T14:48:26.737Z,40.32
2023-05-12T14:50:56.793Z,40.84
2023-05-12T14:53:23.626Z,41.55
2023-05-12T14:55:50.333Z,39.05
2023-05-12T14:58:16.998Z,41.06
2023-05-12T15:00:46.409Z,40.73
2023-05-12T15:03:12.896Z,39.37
2023-05-12T15:05:53.268Z,38.73
2023-05-12T15:08:26.572Z,38.03
2023-05-12T15:10:52.898Z,38.58
2023-05-12T15:13:19.212Z,38.10
2023-05-12T15:15:45.995Z,38.33
2023-05-12T15:18:12.399Z,37.86
2023-05-12T15:20:38.806Z,36.77
2023-05-12T15:23:05.112Z,36.07
2023-05-12T15:25:31.523Z,36.57
2023-05-12T15:27:57.876Z,36.68
2023-05-12T15:30:24.255Z,35.98
2023-05-12T15:32:50.609Z,36.79
2023-05-12T15:35:17.006Z,35.88
2023-05-12T15:37:43.323Z,36.56
2023-05-12T15:40:10.063Z,37.89
2023-05-12T15:42:36.400Z,37.51
2023-05-12T15:45:02.899Z,37.94
2023-05-12T15:47:29.222Z,38.46
2023-05-12T15:49:55.558Z,38.33
2023-05-12T15:52:21.862Z,39.40
2023-05-12T15:54:48.224Z,40.14
2023-05-12T15:57:14.527Z,40.34
2023-05-12T15:59:40.836Z,38.12
2023-05-12T16:02:07.305Z,38.05
2023-05-12T16:04:33.680Z,38.93
2023-05-12T16:06:59.980Z,35.06
2023-05-12T16:09:26.283Z,35.81
2023-05-12T16:11:52.589Z,36.79
2023-05-12T16:14:18.992Z,36.37
2023-05-12T16:16:45.888Z,35.93
2023-05-12T16:19:12.273Z,36.72
2023-05-12T16:21:38.596Z,36.11
2023-05-12T16:24:06.636Z,36.89
2023-05-12T16:26:35.006Z,37.31
2023-05-12T16:29:01.363Z,37.45
2023-05-12T16:31:27.740Z,37.60
2023-05-12T16:33:54.141Z,37.68
2023-05-12T16:36:20.445Z,39.79
2023-05-12T16:38:46.766Z,38.94
2023-05-12T16:41:13.057Z,38.28
2023-05-12T16:43:39.350Z,37.71
2023-05-12T16:46:05.700Z,37.58
2023-05-12T16:48:32.033Z,36.99
2023-05-12T16:51:16.549Z,35.20
2023-05-12T16:53:42.946Z,35.22
2023-05-12T16:56:09.551Z,36.35
2023-05-12T16:58:35.900Z,35.63
2023-05-12T17:01:02.317Z,36.03
2023-05-12T17:03:29.369Z,35.94
2023-05-12T17:05:55.939Z,35.39
2023-05-12T17:08:22.321Z,37.54
2023-05-12T17:10:48.635Z,36.16
2023-05-12T17:13:14.984Z,36.49
2023-05-12T17:15:41.345Z,34.96
2023-05-12T17:18:07.734Z,35.08
2023-05-12T17:20:34.139Z,34.78
2023-05-12T17:23:00.587Z,35.28
2023-05-12T17:25:27.959Z,35.12
2023-05-12T17:27:54.654Z,36.03
2023-05-12T17:30:21.170Z,35.28
2023-05-12T17:32:47.524Z,35.65
2023-05-12T17:35:13.915Z,35.51
2023-05-12T17:37:40.412Z,35.63
2023-05-12T17:40:07.253Z,36.35
2023-05-12T17:42:34.409Z,35.48
2023-05-12T17:45:01.610Z,35.42
2023-05-12T17:47:28.253Z,35.89
2023-05-12T17:49:54.721Z,36.53
2023-05-12T17:52:21.024Z,36.54
2023-05-12T17:54:47.386Z,36.65
2023-05-12T17:57:13.676Z,36.74
2023-05-12T17:59:40.002Z,37.28
2023-05-12T18:02:06.630Z,37.63
2023-05-12T18:04:32.953Z,37.73
2023-05-12T18:06:59.288Z,38.49
2023-05-12T18:09:25.590Z,38.30
2023-05-12T18:11:51.904Z,38.33
2023-05-12T18:14:18.187Z,38.64
2023-05-12T18:16:44.532Z,38.60
2023-05-12T18:19:11.009Z,39.13
2023-05-12T18:21:37.364Z,39.41
2023-05-12T18:24:03.852Z,39.64
2023-05-12T18:26:30.190Z,40.38
2023-05-12T18:28:56.585Z,40.60
2023-05-12T18:31:23.020Z,41.09
2023-05-12T18:33:50.066Z,40.79
2023-05-12T18:36:16.815Z,42.02
2023-05-12T18:38:43.478Z,41.97
2023-05-12T18:41:10.420Z,41.95
2023-05-12T18:43:36.954Z,42.76
2023-05-12T18:46:04.507Z,42.25
2023-05-12T18:48:31.180Z,42.80
2023-05-12T18:50:57.787Z,43.05
2023-05-12T18:53:27.176Z,43.70
2023-05-12T18:55:53.878Z,44.33
2023-05-12T18:58:20.413Z,44.40
2023-05-12T19:00:46.711Z,44.57
2023-05-12T19:03:13.162Z,45.04
2023-05-12T19:05:42.637Z,45.30
2023-05-12T19:08:08.980Z,46.10
2023-05-12T19:10:37.282Z,46.70
2023-05-12T19:13:06.044Z,46.79
2023-05-12T19:15:38.447Z,47.35
2023-05-12T19:18:04.819Z,48.08
2023-05-12T19:20:33.323Z,48.92
2023-05-12T19:23:02.722Z,49.30
2023-05-12T19:25:31.549Z,49.81
2023-05-12T19:27:57.991Z,49.87
2023-05-12T19:30:24.591Z,50.21
2023-05-12T19:32:53.733Z,50.13
2023-05-12T19:35:20.954Z,50.26
2023-05-12T19:37:47.601Z,49.80
2023-05-12T19:40:14.150Z,49.91
2023-05-12T19:42:41.015Z,49.86
2023-05-12T19:45:10.621Z,50.24
2023-05-12T19:47:37.357Z,50.11
2023-05-12T19:50:04.729Z,50.41
2023-05-12T19:52:31.459Z,50.34
2023-05-12T19:54:57.804Z,49.74
2023-05-12T19:57:27.236Z,49.91
2023-05-12T19:59:53.533Z,50.80
2023-05-12T20:02:20.005Z,50.82
2023-05-12T20:04:46.721Z,51.22
2023-05-12T20:07:13.280Z,50.79
2023-05-12T20:09:39.596Z,50.34
2023-05-12T20:12:07.519Z,49.96
2023-05-12T20:14:35.151Z,50.34
2023-05-12T20:17:01.617Z,51.10
2023-05-12T20:19:32.359Z,51.73
2023-05-12T20:21:58.702Z,52.75
2023-05-12T20:24:25.128Z,52.99
2023-05-12T20:26:51.516Z,53.57
2023-05-12T20:29:18.041Z,53.80
2023-05-12T20:31:44.402Z,54.21
2023-05-12T20:34:12.652Z,54.87
2023-05-12T20:36:40.436Z,55.49
2023-05-12T20:39:08.098Z,54.96
2023-05-12T20:41:39.066Z,54.38
2023-05-12T20:44:05.729Z,54.75
2023-05-12T20:46:38.437Z,55.08
2023-05-12T20:49:05.158Z,55.72
2023-05-12T20:51:31.468Z,55.97
2023-05-12T20:53:58.164Z,56.65
2023-05-12T20:56:24.645Z,56.50
2023-05-12T20:58:51.006Z,56.82
2023-05-12T21:01:17.432Z,57.09
2023-05-12T21:03:43.875Z,57.65
2023-05-12T21:06:10.862Z,58.31
2023-05-12T21:08:37.227Z,58.66
2023-05-12T21:11:03.631Z,59.17
2023-05-12T21:13:29.945Z,59.95
2023-05-12T21:15:56.260Z,60.61
2023-05-12T21:18:22.644Z,62.22
2023-05-12T21:20:48.977Z,63.52
2023-05-12T21:23:15.321Z,64.63
2023-05-12T21:25:41.610Z,64.93
2023-05-12T21:28:07.944Z,66.28
2023-05-12T21:30:34.423Z,67.86
2023-05-12T21:33:00.753Z,68.24
2023-05-12T21:35:27.071Z,68.88
2023-05-12T21:37:53.749Z,68.97
2023-05-12T21:40:20.351Z,69.44
2023-05-12T21:42:46.845Z,69.15
2023-05-12T21:45:13.293Z,68.80
2023-05-12T21:47:39.611Z,68.21
2023-05-12T21:50:06.321Z,66.85
2023-05-12T21:52:32.628Z,66.14
2023-05-12T21:55:01.749Z,65.28
2023-05-12T21:57:28.096Z,64.72
2023-05-12T21:59:54.397Z,63.89
2023-05-12T22:02:20.758Z,64.10
2023-05-12T22:04:47.077Z,63.71
2023-05-12T22:07:13.378Z,63.69
2023-05-12T22:09:39.684Z,63.72
2023-05-12T22:12:06.525Z,63.97
2023-05-12T22:14:32.988Z,64.57
2023-05-12T22:17:00.001Z,63.83
2023-05-12T22:19:26.758Z,63.65
2023-05-12T22:21:53.778Z,63.77
2023-05-12T22:24:20.263Z,63.50
2023-05-12T22:26:46.577Z,63.46
2023-05-12T22:29:12.891Z,63.83
2023-05-12T22:31:39.274Z,64.27
2023-05-12T22:34:06.385Z,64.09
2023-05-12T22:36:32.700Z,64.76
2023-05-12T22:38:59.022Z,66.32
2023-05-12T22:41:25.471Z,65.49
2023-05-12T22:43:51.897Z,67.57
2023-05-12T22:46:18.287Z,68.24
2023-05-12T22:48:44.628Z,68.77
2023-05-12T22:51:10.962Z,67.22
2023-05-12T22:53:37.724Z,68.09
2023-05-12T22:56:04.526Z,69.70
2023-05-12T22:58:30.842Z,70.10
2023-05-12T23:00:57.304Z,69.81
2023-05-12T23:03:23.895Z,68.90
2023-05-12T23:05:50.309Z,70.09
2023-05-12T23:08:16.673Z,69.44
2023-05-12T23:10:42.990Z,69.46
2023-05-12T23:13:09.311Z,68.47
2023-05-12T23:15:35.627Z,67.21
2023-05-12T23:18:02.072Z,66.74
2023-05-12T23:20:28.520Z,65.75
2023-05-12T23:22:54.829Z,65.62
2023-05-12T23:25:21.305Z,64.68
2023-05-12T23:27:47.640Z,64.68
2023-05-12T23:30:14.250Z,65.04
2023-05-12T23:32:40.756Z,65.63
2023-05-12T23:35:08.053Z,66.86
2023-05-12T23:37:34.382Z,67.68
2023-05-12T23:40:01.078Z,65.61
2023-05-12T23:42:27.489Z,64.10
2023-05-12T23:44:54.026Z,65.31
2023-05-12T23:47:20.322Z,65.51
2023-05-12T23:49:46.627Z,65.91
2023-05-12T23:52:12.948Z,67.57
2023-05-12T23:54:39.273Z,69.17
2023-05-12T23:57:05.568Z,68.35
2023-05-12T23:59:31.963Z,67.46
